createdAt,value
2022-08-18T00:01:59.083Z,19.83
2022-08-18T00:04:35.497Z,19.76
2022-08-18T00:07:03.333Z,19.72
2022-08-18T00:09:32.675Z,19.69
2022-08-18T00:12:05.249Z,19.64
2022-08-18T00:14:35.209Z,19.59
2022-08-18T00:17:02.363Z,19.59
2022-08-18T00:19:47.808Z,19.60
2022-08-18T00:22:20.829Z,19.60
2022-08-18T00:24:56.786Z,19.61
2022-08-18T00:27:28.493Z,19.67
2022-08-18T00:29:59.996Z,19.68
2022-08-18T00:32:42.610Z,19.69
2022-08-18T00:35:28.852Z,19.71
2022-08-18T00:37:58.718Z,19.74
2022-08-18T00:40:35.778Z,19.72
2022-08-18T00:43:07.083Z,19.69
2022-08-18T00:45:40.544Z,19.66
2022-08-18T00:48:10.422Z,19.61
2022-08-18T00:50:49.962Z,19.56
2022-08-18T00:53:26.326Z,19.55
2022-08-18T00:55:54.820Z,19.56
2022-08-18T00:58:30.138Z,19.61
2022-08-18T01:01:00.536Z,19.58
2022-08-18T01:03:29.013Z,19.53
2022-08-18T01:06:25.989Z,19.50
2022-08-18T01:08:54.124Z,19.46
2022-08-18T01:11:21.135Z,19.44
2022-08-18T01:13:48.266Z,19.41
2022-08-18T01:16:35.898Z,19.37
2022-08-18T01:19:22.041Z,19.34
2022-08-18T01:21:55.680Z,19.29
2022-08-18T01:24:47.989Z,19.28
2022-08-18T01:27:20.464Z,19.24
2022-08-18T01:29:51.655Z,19.21
2022-08-18T01:32:21.571Z,19.19
2022-08-18T01:34:50.963Z,19.15
2022-08-18T01:37:24.319Z,19.13
2022-08-18T01:41:27.549Z,19.09
2022-08-18T01:42:39.866Z,19.08
2022-08-18T01:45:08.248Z,19.04
2022-08-18T01:47:47.739Z,19.03
2022-08-18T01:50:23.753Z,19.02
2022-08-18T01:52:53.543Z,18.97
2022-08-18T01:55:22.946Z,18.93
2022-08-18T01:57:50.222Z,18.91
2022-08-18T02:00:21.059Z,18.90
2022-08-18T02:03:02.170Z,18.86
2022-08-18T02:05:40.446Z,18.84
2022-08-18T02:08:09.504Z,18.79
2022-08-18T02:10:37.211Z,18.77
2022-08-18T02:13:05.201Z,18.73
2022-08-18T02:15:32.671Z,18.73
2022-08-18T02:18:02.025Z,18.72
2022-08-18T02:20:29.027Z,18.68
2022-08-18T02:23:00.933Z,18.64
2022-08-18T02:25:30.342Z,18.58
2022-08-18T02:28:05.377Z,18.55
2022-08-18T02:30:35.194Z,18.56
2022-08-18T02:33:02.200Z,18.54
2022-08-18T02:35:29.197Z,18.51
2022-08-18T02:38:05.899Z,18.54
2022-08-18T02:40:39.497Z,18.52
2022-08-18T02:43:09.317Z,18.49
2022-08-18T02:45:39.718Z,18.47
2022-08-18T02:48:07.220Z,18.44
2022-08-18T02:50:34.583Z,18.40
2022-08-18T02:53:02.579Z,18.41
2022-08-18T02:55:32.567Z,18.40
2022-08-18T02:58:02.560Z,18.41
2022-08-18T03:00:29.580Z,18.40
2022-08-18T03:02:56.873Z,18.38
2022-08-18T03:05:23.976Z,18.38
2022-08-18T03:07:51.161Z,18.36
2022-08-18T03:10:31.839Z,18.37
2022-08-18T03:13:01.617Z,18.35
2022-08-18T03:15:28.783Z,18.30
2022-08-18T03:17:56.296Z,18.28
2022-08-18T03:20:30.485Z,18.26
2022-08-18T03:22:58.783Z,18.23
2022-08-18T03:25:25.966Z,18.20
2022-08-18T03:27:53.451Z,18.19
2022-08-18T03:30:20.546Z,18.18
2022-08-18T03:32:47.867Z,18.16
2022-08-18T03:35:14.920Z,18.15
2022-08-18T03:37:42.156Z,18.14
2022-08-18T03:40:11.124Z,18.11
2022-08-18T03:42:38.284Z,18.09
2022-08-18T03:45:13.323Z,18.16
2022-08-18T03:47:46.129Z,18.16
2022-08-18T03:50:14.194Z,18.16
2022-08-18T03:52:41.556Z,18.16
2022-08-18T03:55:09.418Z,18.16
2022-08-18T03:57:39.505Z,18.21
2022-08-18T04:00:10.267Z,18.27
2022-08-18T04:02:37.811Z,18.33
2022-08-18T04:05:06.528Z,18.36
2022-08-18T04:07:34.603Z,18.44
2022-08-18T04:10:01.743Z,18.52
2022-08-18T04:12:28.755Z,18.60
2022-08-18T04:14:55.715Z,18.68
2022-08-18T04:17:25.748Z,18.84
2022-08-18T04:19:54.407Z,18.98
2022-08-18T04:22:22.733Z,19.11
2022-08-18T04:24:50.691Z,19.33
2022-08-18T04:27:19.446Z,19.59
2022-08-18T04:29:46.883Z,19.75
2022-08-18T04:32:14.047Z,19.91
2022-08-18T04:34:41.000Z,20.12
2022-08-18T04:37:09.780Z,20.25
2022-08-18T04:39:37.723Z,20.37
2022-08-18T04:42:06.079Z,20.53
2022-08-18T04:44:34.541Z,20.63
2022-08-18T04:47:05.212Z,20.76
2022-08-18T04:49:34.103Z,20.96
2022-08-18T04:52:37.718Z,21.10
2022-08-18T04:55:07.856Z,21.31
2022-08-18T04:57:35.385Z,21.45
2022-08-18T05:00:06.591Z,21.66
2022-08-18T05:02:33.751Z,21.84
2022-08-18T05:05:03.511Z,22.02
2022-08-18T05:07:33.441Z,22.14
2022-08-18T05:10:00.621Z,22.25
2022-08-18T05:12:29.024Z,22.38
2022-08-18T05:14:58.869Z,22.51
2022-08-18T05:17:29.123Z,22.70
2022-08-18T05:20:01.562Z,22.83
2022-08-18T05:22:31.391Z,23.07
2022-08-18T05:25:00.395Z,23.21
2022-08-18T05:27:35.329Z,23.44
2022-08-18T05:30:04.853Z,23.96
2022-08-18T05:32:48.318Z,24.34
2022-08-18T05:35:33.451Z,24.44
2022-08-18T05:38:16.848Z,24.57
2022-08-18T05:41:02.302Z,24.70
2022-08-18T05:43:29.428Z,24.64
2022-08-18T05:45:57.809Z,24.98
2022-08-18T05:48:24.750Z,25.21
2022-08-18T05:50:51.945Z,25.16
2022-08-18T05:53:20.738Z,25.17
2022-08-18T05:56:24.936Z,25.14
2022-08-18T05:58:55.658Z,25.33
2022-08-18T06:01:27.222Z,25.63
2022-08-18T06:04:09.216Z,25.53
2022-08-18T06:06:37.537Z,25.54
2022-08-18T06:09:12.999Z,25.52
2022-08-18T06:11:40.014Z,25.40
2022-08-18T06:14:07.402Z,25.41
2022-08-18T06:16:41.903Z,25.41
2022-08-18T06:19:23.259Z,25.93
2022-08-18T06:22:02.121Z,26.37
2022-08-18T06:24:44.392Z,26.52
2022-08-18T06:27:31.157Z,26.44
2022-08-18T06:30:11.965Z,26.42
2022-08-18T06:32:52.983Z,26.60
2022-08-18T06:35:48.459Z,26.71
2022-08-18T06:38:40.978Z,26.93
2022-08-18T06:41:41.421Z,27.23
2022-08-18T06:44:20.658Z,27.76
2022-08-18T06:46:54.079Z,28.40
2022-08-18T06:49:31.699Z,30.18
2022-08-18T06:51:59.246Z,32.03
2022-08-18T06:54:29.593Z,33.08
2022-08-18T06:56:58.361Z,32.85
2022-08-18T06:59:32.063Z,32.12
2022-08-18T07:02:24.953Z,31.74
2022-08-18T07:05:08.116Z,31.61
2022-08-18T07:07:40.624Z,32.01
2022-08-18T07:10:31.189Z,32.84
2022-08-18T07:13:13.619Z,33.49
2022-08-18T07:15:41.048Z,33.82
2022-08-18T07:18:08.877Z,34.46
2022-08-18T07:20:53.950Z,34.56
2022-08-18T07:23:40.925Z,35.14
2022-08-18T07:26:15.527Z,35.21
2022-08-18T07:28:50.956Z,35.37
2022-08-18T07:31:56.747Z,36.00
2022-08-18T07:34:38.569Z,36.80
2022-08-18T07:37:08.121Z,37.51
2022-08-18T07:39:47.297Z,37.36
2022-08-18T07:42:50.629Z,37.31
2022-08-18T07:45:24.879Z,37.31
2022-08-18T07:48:15.717Z,37.42
2022-08-18T07:51:18.751Z,37.13
2022-08-18T07:54:45.308Z,37.59
2022-08-18T07:57:20.511Z,37.61
2022-08-18T08:00:10.415Z,37.93
2022-08-18T08:02:55.070Z,37.24
2022-08-18T08:05:38.375Z,38.03
2022-08-18T08:08:57.056Z,38.50
2022-08-18T08:11:44.600Z,37.90
2022-08-18T08:14:25.701Z,38.09
2022-08-18T08:17:04.772Z,38.87
2022-08-18T08:20:01.000Z,38.83
2022-08-18T08:22:35.939Z,39.25
2022-08-18T08:25:45.803Z,39.02
2022-08-18T08:28:35.931Z,39.63
2022-08-18T08:31:37.845Z,40.08
2022-08-18T08:34:16.825Z,40.02
2022-08-18T08:36:47.185Z,40.14
2022-08-18T08:39:32.112Z,39.74
2022-08-18T08:42:29.097Z,40.13
2022-08-18T08:45:01.265Z,39.88
2022-08-18T08:47:40.590Z,39.64
2022-08-18T08:50:18.358Z,39.13
2022-08-18T08:52:58.392Z,39.38
2022-08-18T08:55:29.949Z,39.68
2022-08-18T08:58:17.326Z,40.45
2022-08-18T09:00:51.691Z,40.33
2022-08-18T09:03:30.184Z,39.35
2022-08-18T09:06:00.592Z,38.90
2022-08-18T09:08:46.925Z,38.76
2022-08-18T09:11:35.370Z,39.33
2022-08-18T09:14:17.705Z,39.42
2022-08-18T09:17:17.276Z,39.76
2022-08-18T09:20:00.682Z,38.91
2022-08-18T09:22:39.805Z,38.44
2022-08-18T09:25:29.556Z,39.01
2022-08-18T09:28:14.390Z,38.96
2022-08-18T09:31:13.649Z,38.12
2022-08-18T09:33:40.781Z,37.68
2022-08-18T09:36:42.592Z,38.66
2022-08-18T09:39:43.832Z,38.56
2022-08-18T09:42:18.882Z,37.66
2022-08-18T09:47:36.208Z,36.51
2022-08-18T09:50:06.043Z,36.96
2022-08-18T09:50:37.149Z,37.12
2022-08-18T09:52:32.985Z,36.97
2022-08-18T09:55:02.855Z,36.50
2022-08-18T09:57:42.222Z,36.33
2022-08-18T10:00:14.883Z,36.80
2022-08-18T10:02:48.596Z,36.56
2022-08-18T10:05:20.087Z,37.31
2022-08-18T10:07:56.215Z,36.94
2022-08-18T10:11:09.579Z,36.41
2022-08-18T10:13:50.956Z,35.90
2022-08-18T10:19:39.606Z,35.71
2022-08-18T10:22:11.289Z,36.31
2022-08-18T10:24:54.068Z,36.86
2022-08-18T10:27:33.609Z,37.03
2022-08-18T10:30:05.572Z,36.36
2022-08-18T10:32:52.233Z,35.92
2022-08-18T10:35:39.840Z,36.36
2022-08-18T10:38:22.952Z,35.93
2022-08-18T10:41:09.579Z,35.36
2022-08-18T10:43:57.206Z,35.36
2022-08-18T10:46:33.192Z,35.38
2022-08-18T10:49:07.045Z,35.49
2022-08-18T10:51:59.153Z,35.47
2022-08-18T10:54:51.999Z,35.53
2022-08-18T10:57:27.474Z,35.48
2022-08-18T11:00:17.299Z,35.71
2022-08-18T11:03:02.744Z,35.70
2022-08-18T11:05:35.905Z,35.70
2022-08-18T11:08:15.852Z,35.61
2022-08-18T11:11:31.438Z,35.72
2022-08-18T11:13:50.459Z,35.51
2022-08-18T11:16:18.305Z,35.39
2022-08-18T11:18:53.001Z,34.80
2022-08-18T11:21:42.807Z,34.75
2022-08-18T11:24:25.969Z,34.50
2022-08-18T11:26:53.719Z,34.26
2022-08-18T11:29:22.596Z,34.10
2022-08-18T11:32:01.971Z,34.24
2022-08-18T11:35:02.437Z,34.41
2022-08-18T11:41:10.476Z,34.79
2022-08-18T11:46:34.683Z,34.88
2022-08-18T11:49:33.725Z,34.86
2022-08-18T11:52:19.803Z,35.05
2022-08-18T11:55:14.617Z,35.03
2022-08-18T11:57:59.051Z,34.85
2022-08-18T12:00:36.571Z,34.46
2022-08-18T12:03:19.847Z,34.64
2022-08-18T12:05:54.174Z,34.71
2022-08-18T12:08:58.177Z,34.59
2022-08-18T12:11:28.947Z,34.58
2022-08-18T12:14:32.423Z,34.54
2022-08-18T12:17:02.819Z,34.44
2022-08-18T12:22:23.396Z,34.38
2022-08-18T12:24:51.983Z,34.32
2022-08-18T12:27:23.798Z,34.33
2022-08-18T12:29:53.420Z,34.20
2022-08-18T12:32:46.495Z,34.32
2022-08-18T12:35:11.798Z,34.51
2022-08-18T12:37:58.852Z,34.56
2022-08-18T12:40:26.832Z,34.67
2022-08-18T12:42:56.030Z,34.61
2022-08-18T12:45:24.655Z,34.69
2022-08-18T12:53:57.769Z,34.90
2022-08-18T12:56:31.796Z,34.85
2022-08-18T12:59:04.403Z,34.85
2022-08-18T13:01:37.165Z,34.69
2022-08-18T13:04:13.259Z,34.64
2022-08-18T13:06:50.364Z,34.61
2022-08-18T13:09:35.606Z,34.72
2022-08-18T13:12:19.188Z,34.86
2022-08-18T13:14:48.713Z,34.92
2022-08-18T13:17:33.608Z,34.85
2022-08-18T13:20:09.787Z,34.93
2022-08-18T13:22:40.600Z,34.82
2022-08-18T13:25:11.784Z,34.70
2022-08-18T13:27:43.553Z,34.75
2022-08-18T13:30:31.556Z,34.73
2022-08-18T13:33:05.898Z,34.80
2022-08-18T13:35:54.453Z,34.91
2022-08-18T13:38:27.676Z,34.91
2022-08-18T13:40:59.001Z,34.93
2022-08-18T13:43:35.874Z,34.94
2022-08-18T13:46:09.278Z,34.89
2022-08-18T13:48:38.821Z,34.90
2022-08-18T13:51:11.586Z,34.98
2022-08-18T13:53:50.417Z,34.84
2022-08-18T13:56:19.931Z,34.91
2022-08-18T13:58:53.343Z,34.86
2022-08-18T14:01:44.864Z,34.84
2022-08-18T14:04:12.713Z,34.81
2022-08-18T14:06:51.288Z,34.78
2022-08-18T14:09:28.096Z,34.54
2022-08-18T14:12:22.444Z,34.56
2022-08-18T14:14:56.900Z,34.50
2022-08-18T14:17:25.837Z,34.48
2022-08-18T14:20:21.151Z,34.47
2022-08-18T14:23:11.281Z,34.39
2022-08-18T14:26:29.861Z,34.28
2022-08-18T14:28:57.441Z,34.27
2022-08-18T14:31:24.514Z,34.20
2022-08-18T14:33:54.727Z,34.09
2022-08-18T14:36:29.767Z,34.05
2022-08-18T14:39:00.462Z,33.97
2022-08-18T14:41:28.342Z,33.91
2022-08-18T14:44:11.364Z,33.82
2022-08-18T14:46:54.125Z,33.80
2022-08-18T14:49:28.345Z,33.71
2022-08-18T14:51:59.744Z,33.71
2022-08-18T14:54:30.064Z,33.72
2022-08-18T14:56:59.941Z,33.73
2022-08-18T14:59:28.580Z,33.77
2022-08-18T15:01:56.383Z,33.77
2022-08-18T15:04:23.940Z,33.72
2022-08-18T15:06:56.097Z,33.71
2022-08-18T15:09:27.749Z,33.75
2022-08-18T15:11:59.981Z,33.81
2022-08-18T15:14:33.067Z,33.81
2022-08-18T15:17:03.912Z,33.83
2022-08-18T15:20:00.662Z,33.87
2022-08-18T15:22:47.821Z,33.84
2022-08-18T15:25:34.273Z,33.85
2022-08-18T15:28:02.305Z,33.89
2022-08-18T15:30:29.681Z,33.93
2022-08-18T15:32:57.794Z,33.79
2022-08-18T15:35:25.735Z,33.69
2022-08-18T15:37:54.808Z,33.66
2022-08-18T15:40:30.825Z,33.67
2022-08-18T15:43:09.803Z,33.52
2022-08-18T15:45:56.177Z,33.48
2022-08-18T15:48:27.274Z,33.39
2022-08-18T15:50:55.197Z,33.33
2022-08-18T15:53:29.816Z,33.22
2022-08-18T15:55:57.430Z,33.19
2022-08-18T15:58:26.953Z,33.13
2022-08-18T16:00:59.090Z,33.02
2022-08-18T16:03:31.764Z,32.91
2022-08-18T16:06:01.076Z,32.83
2022-08-18T16:08:28.286Z,32.81
2022-08-18T16:10:55.704Z,32.78
2022-08-18T16:13:26.361Z,32.68
2022-08-18T16:15:53.387Z,32.57
2022-08-18T16:18:23.394Z,32.42
2022-08-18T16:20:52.853Z,32.36
2022-08-18T16:23:24.534Z,32.19
2022-08-18T16:25:53.759Z,32.06
2022-08-18T16:28:20.810Z,31.98
2022-08-18T16:31:02.450Z,31.85
2022-08-18T16:33:32.624Z,31.59
2022-08-18T16:36:07.882Z,30.59
2022-08-18T16:38:38.606Z,30.14
2022-08-18T16:41:12.381Z,29.77
2022-08-18T16:43:44.464Z,29.53
2022-08-18T16:46:24.551Z,29.29
2022-08-18T16:48:52.884Z,29.01
2022-08-18T16:51:22.160Z,28.75
2022-08-18T16:53:52.257Z,28.28
2022-08-18T16:56:25.704Z,27.92
2022-08-18T16:59:11.477Z,27.69
2022-08-18T17:01:57.663Z,27.52
2022-08-18T17:04:33.465Z,27.38
2022-08-18T17:07:04.978Z,27.22
2022-08-18T17:09:33.508Z,27.13
2022-08-18T17:12:05.010Z,26.99
2022-08-18T17:14:33.383Z,26.95
2022-08-18T17:17:01.146Z,26.81
2022-08-18T17:19:33.748Z,26.57
2022-08-18T17:22:02.181Z,26.36
2022-08-18T17:24:30.447Z,26.20
2022-08-18T17:27:25.635Z,26.08
2022-08-18T17:30:00.543Z,25.94
2022-08-18T17:32:40.958Z,25.86
2022-08-18T17:35:13.898Z,25.76
2022-08-18T17:37:59.336Z,25.67
2022-08-18T17:40:49.807Z,25.60
2022-08-18T17:43:23.611Z,25.56
2022-08-18T17:46:01.351Z,25.53
2022-08-18T17:48:37.426Z,25.49
2022-08-18T17:51:34.515Z,25.47
2022-08-18T17:54:12.231Z,25.48
2022-08-18T17:56:46.340Z,25.46
2022-08-18T17:59:50.969Z,25.43
2022-08-18T18:02:28.679Z,25.37
2022-08-18T18:04:58.646Z,25.24
2022-08-18T18:07:52.153Z,25.13
2022-08-18T18:10:28.384Z,25.05
2022-08-18T18:13:13.226Z,24.92
2022-08-18T18:15:49.313Z,24.88
2022-08-18T18:18:42.872Z,24.78
2022-08-18T18:21:15.932Z,24.73
2022-08-18T18:24:05.220Z,24.65
2022-08-18T18:26:45.938Z,24.58
2022-08-18T18:29:30.665Z,24.51
2022-08-18T18:32:06.088Z,24.52
2022-08-18T18:34:45.613Z,24.47
2022-08-18T18:37:28.741Z,24.43
2022-08-18T18:40:09.136Z,24.39
2022-08-18T18:42:36.661Z,24.32
2022-08-18T18:45:13.838Z,24.32
2022-08-18T18:47:50.112Z,24.26
2022-08-18T18:50:30.105Z,24.23
2022-08-18T18:53:09.218Z,24.21
2022-08-18T18:55:49.703Z,24.23
2022-08-18T18:58:48.297Z,24.20
2022-08-18T19:01:31.616Z,24.10
2022-08-18T19:04:06.277Z,24.04
2022-08-18T19:06:57.317Z,23.98
2022-08-18T19:09:49.827Z,23.86
2022-08-18T19:12:38.659Z,23.85
2022-08-18T19:15:14.975Z,23.89
2022-08-18T19:17:54.066Z,23.81
2022-08-18T19:20:27.438Z,23.74
2022-08-18T19:23:04.441Z,23.67
2022-08-18T19:25:36.122Z,23.54
2022-08-18T19:28:15.637Z,23.43
2022-08-18T19:30:47.296Z,23.25
2022-08-18T19:33:43.605Z,23.09
2022-08-18T19:36:19.691Z,23.02
2022-08-18T19:39:15.606Z,22.93
2022-08-18T19:42:05.761Z,22.91
2022-08-18T19:45:06.545Z,22.81
2022-08-18T19:47:40.818Z,22.69
2022-08-18T19:50:14.201Z,22.66
2022-08-18T19:53:04.887Z,22.67
2022-08-18T19:55:47.580Z,22.57
2022-08-18T19:58:23.149Z,22.56
2022-08-18T20:00:57.625Z,22.53
2022-08-18T20:03:52.643Z,22.45
2022-08-18T20:06:34.293Z,22.35
2022-08-18T20:09:14.898Z,22.25
2022-08-18T20:12:08.914Z,22.21
2022-08-18T20:14:39.426Z,22.18
2022-08-18T20:17:09.529Z,22.14
2022-08-18T20:19:47.540Z,22.06
2022-08-18T20:22:22.070Z,22.03
2022-08-18T20:25:08.889Z,21.98
2022-08-18T20:27:41.431Z,21.96
2022-08-18T20:30:20.492Z,21.84
2022-08-18T20:33:29.776Z,21.77
2022-08-18T20:36:27.343Z,21.69
2022-08-18T20:38:59.620Z,21.60
2022-08-18T20:41:30.159Z,21.54
2022-08-18T20:43:57.115Z,21.48
2022-08-18T20:46:52.219Z,21.44
2022-08-18T20:49:28.274Z,21.40
2022-08-18T20:52:13.151Z,21.29
2022-08-18T20:54:59.299Z,21.23
2022-08-18T20:57:35.140Z,21.16
2022-08-18T21:00:27.047Z,21.07
2022-08-18T21:02:59.840Z,20.98
2022-08-18T21:05:33.486Z,20.95
2022-08-18T21:08:19.845Z,20.92
2022-08-18T21:11:09.518Z,20.88
2022-08-18T21:13:44.298Z,20.83
2022-08-18T21:16:14.356Z,20.80
2022-08-18T21:18:57.081Z,20.81
2022-08-18T21:21:33.528Z,20.78
2022-08-18T21:24:03.024Z,20.81
2022-08-18T21:26:33.010Z,20.76
2022-08-18T21:29:19.827Z,20.77
2022-08-18T21:31:47.979Z,20.71
2022-08-18T21:34:30.466Z,20.70
2022-08-18T21:37:08.466Z,20.69
2022-08-18T21:39:48.784Z,20.61
2022-08-18T21:42:22.543Z,20.61
2022-08-18T21:44:54.965Z,20.54
2022-08-18T21:47:26.618Z,20.54
2022-08-18T21:50:14.826Z,20.54
2022-08-18T21:53:05.437Z,20.42
2022-08-18T21:55:40.257Z,20.36
2022-08-18T21:58:18.325Z,20.31
2022-08-18T22:01:24.370Z,20.23
2022-08-18T22:04:24.982Z,20.08
2022-08-18T22:06:59.320Z,20.02
2022-08-18T22:09:50.318Z,19.98
2022-08-18T22:12:54.370Z,19.98
2022-08-18T22:15:27.742Z,20.02
2022-08-18T22:18:27.353Z,19.99
2022-08-18T22:20:59.883Z,20.01
2022-08-18T22:24:04.122Z,19.98
2022-08-18T22:26:34.694Z,19.95
2022-08-18T22:29:36.143Z,19.95
2022-08-18T22:32:13.805Z,19.94
2022-08-18T22:34:42.164Z,19.94
2022-08-18T22:37:12.108Z,19.90
2022-08-18T22:40:02.085Z,19.89
2022-08-18T22:42:32.993Z,19.82
2022-08-18T22:45:04.726Z,19.81
2022-08-18T22:47:42.820Z,19.76
2022-08-18T22:50:11.520Z,19.71
2022-08-18T22:52:45.124Z,19.68
2022-08-18T22:55:15.577Z,19.67
2022-08-18T22:57:47.282Z,19.66
2022-08-18T23:00:18.111Z,19.67
2022-08-18T23:02:47.788Z,19.67
2022-08-18T23:05:15.373Z,19.66
2022-08-18T23:07:42.807Z,19.72
2022-08-18T23:10:13.831Z,19.71
2022-08-18T23:12:43.158Z,19.74
2022-08-18T23:15:11.685Z,19.79
2022-08-18T23:17:40.838Z,19.80
2022-08-18T23:20:12.319Z,19.79
2022-08-18T23:22:45.682Z,19.75
2022-08-18T23:25:13.637Z,19.72
2022-08-18T23:27:41.352Z,19.71
2022-08-18T23:30:09.445Z,19.70
2022-08-18T23:32:36.539Z,19.74
2022-08-18T23:35:04.366Z,19.78
2022-08-18T23:37:31.826Z,19.82
2022-08-18T23:39:59.359Z,19.85
2022-08-18T23:42:26.754Z,19.87
2022-08-18T23:44:53.982Z,19.88
2022-08-18T23:47:21.874Z,19.89
2022-08-18T23:49:54.486Z,19.88
2022-08-18T23:52:24.173Z,19.85
2022-08-18T23:54:51.238Z,19.79
2022-08-18T23:57:20.502Z,19.74
2022-08-18T23:59:47.866Z,19.70
